sensor_id;sensor_type;location;lat;lon;timestamp;pressure;altitude;pressure_sealevel;temperature;humidity
11343;BME280;5726;42.160;24.746;2023-05-10T00:01:24;100047.59;;;12.12;100.00
11343;BME280;5726;42.160;24.746;2023-05-10T00:03:49;100045.16;;;12.16;100.00
11343;BME280;5726;42.160;24.746;2023-05-10T00:06:15;100054.19;;;12.25;100.00
11343;BME280;5726;42.160;24.746;2023-05-10T00:08:41;100044.34;;;12.15;100.00
11343;BME280;5726;42.160;24.746;2023-05-10T00:11:06;100032.88;;;12.05;100.00
11343;BME280;5726;42.160;24.746;2023-05-10T00:13:31;100038.16;;;12.15;100.00
11343;BME280;5726;42.160;24.746;2023-05-10T00:15:57;100038.50;;;12.08;100.00
11343;BME280;5726;42.160;24.746;2023-05-10T00:18:22;100034.78;;;12.04;100.00
11343;BME280;5726;42.160;24.746;2023-05-10T00:20:48;100038.38;;;12.18;100.00
11343;BME280;5726;42.160;24.746;2023-05-10T00:23:14;100034.63;;;12.19;100.00
11343;BME280;5726;42.160;24.746;2023-05-10T00:25:39;100038.72;;;12.12;100.00
11343;BME280;5726;42.160;24.746;2023-05-10T00:28:05;100029.72;;;12.26;100.00
11343;BME280;5726;42.160;24.746;2023-05-10T00:30:30;100031.47;;;12.12;100.00
11343;BME280;5726;42.160;24.746;2023-05-10T00:32:55;100032.91;;;12.28;100.00
11343;BME280;5726;42.160;24.746;2023-05-10T00:35:21;100032.50;;;12.40;100.00
11343;BME280;5726;42.160;24.746;2023-05-10T00:37:47;100024.84;;;12.28;100.00
11343;BME280;5726;42.160;24.746;2023-05-10T00:40:12;100025.19;;;11.98;100.00
11343;BME280;5726;42.160;24.746;2023-05-10T00:42:38;100027.78;;;12.03;100.00
11343;BME280;5726;42.160;24.746;2023-05-10T00:45:04;100024.69;;;11.92;100.00
11343;BME280;5726;42.160;24.746;2023-05-10T00:47:29;100023.16;;;11.86;100.00
11343;BME280;5726;42.160;24.746;2023-05-10T00:49:55;100016.19;;;11.85;100.00
11343;BME280;5726;42.160;24.746;2023-05-10T00:52:21;100020.25;;;11.82;100.00
11343;BME280;5726;42.160;24.746;2023-05-10T00:54:50;100023.34;;;11.66;100.00
11343;BME280;5726;42.160;24.746;2023-05-10T00:57:17;100025.66;;;11.77;100.00
11343;BME280;5726;42.160;24.746;2023-05-10T00:59:42;100027.50;;;11.82;100.00
11343;BME280;5726;42.160;24.746;2023-05-10T01:02:08;100031.84;;;11.78;100.00
11343;BME280;5726;42.160;24.746;2023-05-10T01:04:34;100013.44;;;11.90;100.00
11343;BME280;5726;42.160;24.746;2023-05-10T01:07:00;100019.38;;;11.87;100.00
11343;BME280;5726;42.160;24.746;2023-05-10T01:09:27;100032.31;;;11.85;100.00
11343;BME280;5726;42.160;24.746;2023-05-10T01:11:53;100030.69;;;11.84;100.00
11343;BME280;5726;42.160;24.746;2023-05-10T01:14:19;100016.34;;;11.70;100.00
11343;BME280;5726;42.160;24.746;2023-05-10T01:16:47;100031.47;;;11.61;100.00
11343;BME280;5726;42.160;24.746;2023-05-10T01:19:25;100029.94;;;11.45;100.00
11343;BME280;5726;42.160;24.746;2023-05-10T01:28:00;100040.75;;;11.40;100.00
11343;BME280;5726;42.160;24.746;2023-05-10T01:30:54;100031.81;;;11.49;100.00
11343;BME280;5726;42.160;24.746;2023-05-10T01:33:37;100036.91;;;11.51;100.00
11343;BME280;5726;42.160;24.746;2023-05-10T01:36:26;100028.00;;;11.55;100.00
11343;BME280;5726;42.160;24.746;2023-05-10T01:39:25;100028.38;;;11.39;100.00
11343;BME280;5726;42.160;24.746;2023-05-10T01:49:55;100032.47;;;11.32;100.00
11343;BME280;5726;42.160;24.746;2023-05-10T01:52:26;100030.13;;;11.25;100.00
11343;BME280;5726;42.160;24.746;2023-05-10T01:55:01;100021.94;;;11.40;100.00
11343;BME280;5726;42.160;24.746;2023-05-10T01:57:32;100023.06;;;11.34;100.00
11343;BME280;5726;42.160;24.746;2023-05-10T01:59:59;100036.91;;;11.51;100.00
11343;BME280;5726;42.160;24.746;2023-05-10T02:02:27;100032.63;;;11.45;100.00
11343;BME280;5726;42.160;24.746;2023-05-10T02:04:54;100039.25;;;11.24;100.00
11343;BME280;5726;42.160;24.746;2023-05-10T02:07:23;100042.66;;;11.35;100.00
11343;BME280;5726;42.160;24.746;2023-05-10T02:09:49;100040.88;;;11.20;100.00
11343;BME280;5726;42.160;24.746;2023-05-10T02:12:16;100034.53;;;11.44;100.00
11343;BME280;5726;42.160;24.746;2023-05-10T02:14:43;100036.94;;;11.46;100.00
11343;BME280;5726;42.160;24.746;2023-05-10T02:17:11;100035.41;;;11.35;100.00
11343;BME280;5726;42.160;24.746;2023-05-10T02:19:40;100037.63;;;11.23;100.00
11343;BME280;5726;42.160;24.746;2023-05-10T02:22:06;100041.59;;;11.31;100.00
11343;BME280;5726;42.160;24.746;2023-05-10T02:24:34;100036.78;;;11.28;100.00
11343;BME280;5726;42.160;24.746;2023-05-10T02:27:02;100037.75;;;11.08;100.00
11343;BME280;5726;42.160;24.746;2023-05-10T02:29:29;100039.25;;;11.24;100.00
11343;BME280;5726;42.160;24.746;2023-05-10T02:31:57;100039.75;;;11.31;100.00
11343;BME280;5726;42.160;24.746;2023-05-10T02:34:25;100046.13;;;11.35;100.00
11343;BME280;5726;42.160;24.746;2023-05-10T02:36:52;100035.38;;;11.40;100.00
11343;BME280;5726;42.160;24.746;2023-05-10T02:39:18;100040.03;;;11.30;100.00
11343;BME280;5726;42.160;24.746;2023-05-10T02:41:46;100048.31;;;11.33;100.00
11343;BME280;5726;42.160;24.746;2023-05-10T02:44:14;100045.00;;;11.46;100.00
11343;BME280;5726;42.160;24.746;2023-05-10T02:46:40;100042.28;;;11.51;100.00
11343;BME280;5726;42.160;24.746;2023-05-10T02:49:05;100045.56;;;11.43;100.00
11343;BME280;5726;42.160;24.746;2023-05-10T02:51:34;100041.44;;;11.55;100.00
11343;BME280;5726;42.160;24.746;2023-05-10T02:54:12;100038.19;;;11.58;100.00
11343;BME280;5726;42.160;24.746;2023-05-10T02:56:43;100039.75;;;11.26;100.00
11343;BME280;5726;42.160;24.746;2023-05-10T02:59:12;100035.44;;;11.30;100.00
11343;BME280;5726;42.160;24.746;2023-05-10T03:01:37;100035.28;;;11.17;100.00
11343;BME280;5726;42.160;24.746;2023-05-10T03:04:03;100034.16;;;11.23;100.00
11343;BME280;5726;42.160;24.746;2023-05-10T03:06:29;100039.25;;;11.24;100.00
11343;BME280;5726;42.160;24.746;2023-05-10T03:08:54;100043.94;;;11.09;100.00
11343;BME280;5726;42.160;24.746;2023-05-10T03:11:33;100047.28;;;11.24;100.00
11343;BME280;5726;42.160;24.746;2023-05-10T03:14:21;100035.31;;;11.50;100.00
11343;BME280;5726;42.160;24.746;2023-05-10T03:19:57;100048.72;;;11.55;100.00
11343;BME280;5726;42.160;24.746;2023-05-10T03:22:50;100038.53;;;11.52;100.00
11343;BME280;5726;42.160;24.746;2023-05-10T03:25:18;100046.03;;;11.55;100.00
11343;BME280;5726;42.160;24.746;2023-05-10T03:27:45;100042.22;;;11.61;100.00
11343;BME280;5726;42.160;24.746;2023-05-10T03:30:12;100049.84;;;11.49;100.00
11343;BME280;5726;42.160;24.746;2023-05-10T03:32:38;100043.94;;;11.42;100.00
11343;BME280;5726;42.160;24.746;2023-05-10T03:35:11;100051.91;;;11.57;100.00
11343;BME280;5726;42.160;24.746;2023-05-10T03:37:37;100062.34;;;11.25;100.00
11343;BME280;5726;42.160;24.746;2023-05-10T03:40:03;100067.03;;;11.43;100.00
11343;BME280;5726;42.160;24.746;2023-05-10T03:42:29;100061.66;;;11.43;100.00
11343;BME280;5726;42.160;24.746;2023-05-10T03:44:55;100063.69;;;11.61;100.00
11343;BME280;5726;42.160;24.746;2023-05-10T03:47:20;100060.72;;;11.24;100.00
11343;BME280;5726;42.160;24.746;2023-05-10T03:49:45;100059.16;;;11.18;100.00
11343;BME280;5726;42.160;24.746;2023-05-10T03:52:11;100062.66;;;11.57;100.00
11343;BME280;5726;42.160;24.746;2023-05-10T03:54:37;100064.75;;;11.60;100.00
11343;BME280;5726;42.160;24.746;2023-05-10T03:57:02;100076.75;;;11.34;100.00
11343;BME280;5726;42.160;24.746;2023-05-10T03:59:28;100075.09;;;11.38;100.00
11343;BME280;5726;42.160;24.746;2023-05-10T04:01:53;100069.38;;;11.54;100.00
11343;BME280;5726;42.160;24.746;2023-05-10T04:04:19;100071.22;;;11.59;100.00
11343;BME280;5726;42.160;24.746;2023-05-10T04:06:46;100075.78;;;11.58;100.00
11343;BME280;5726;42.160;24.746;2023-05-10T04:09:11;100087.41;;;11.49;100.00
11343;BME280;5726;42.160;24.746;2023-05-10T04:11:37;100074.53;;;11.46;100.00
11343;BME280;5726;42.160;24.746;2023-05-10T04:14:02;100080.31;;;11.63;100.00
11343;BME280;5726;42.160;24.746;2023-05-10T04:16:28;100083.56;;;11.60;100.00
11343;BME280;5726;42.160;24.746;2023-05-10T04:18:53;100076.84;;;11.62;100.00
11343;BME280;5726;42.160;24.746;2023-05-10T04:21:20;100074.06;;;11.72;100.00
11343;BME280;5726;42.160;24.746;2023-05-10T04:23:45;100085.06;;;11.76;100.00
11343;BME280;5726;42.160;24.746;2023-05-10T04:26:11;100077.59;;;11.68;100.00
11343;BME280;5726;42.160;24.746;2023-05-10T04:28:36;100082.31;;;11.81;100.00
11343;BME280;5726;42.160;24.746;2023-05-10T04:31:06;100088.31;;;11.73;100.00
11343;BME280;5726;42.160;24.746;2023-05-10T04:33:32;100091.38;;;11.90;100.00
11343;BME280;5726;42.160;24.746;2023-05-10T04:35:57;100091.31;;;11.94;100.00
11343;BME280;5726;42.160;24.746;2023-05-10T04:38:23;100099.56;;;12.03;100.00
11343;BME280;5726;42.160;24.746;2023-05-10T04:40:48;100093.34;;;12.07;100.00
11343;BME280;5726;42.160;24.746;2023-05-10T04:43:14;100090.94;;;12.06;100.00
11343;BME280;5726;42.160;24.746;2023-05-10T04:45:39;100085.44;;;11.93;100.00
11343;BME280;5726;42.160;24.746;2023-05-10T04:48:05;100087.06;;;11.89;100.00
11343;BME280;5726;42.160;24.746;2023-05-10T04:50:30;100083.91;;;12.33;100.00
11343;BME280;5726;42.160;24.746;2023-05-10T04:52:56;100091.47;;;12.31;100.00
11343;BME280;5726;42.160;24.746;2023-05-10T04:55:22;100086.00;;;12.41;100.00
11343;BME280;5726;42.160;24.746;2023-05-10T04:57:47;100098.78;;;12.26;100.00
11343;BME280;5726;42.160;24.746;2023-05-10T05:00:13;100096.38;;;12.24;100.00
11343;BME280;5726;42.160;24.746;2023-05-10T05:02:42;100096.94;;;12.26;100.00
11343;BME280;5726;42.160;24.746;2023-05-10T05:05:07;100089.19;;;12.20;100.00
11343;BME280;5726;42.160;24.746;2023-05-10T05:07:33;100094.81;;;12.23;100.00
11343;BME280;5726;42.160;24.746;2023-05-10T05:09:58;100104.66;;;12.04;100.00
11343;BME280;5726;42.160;24.746;2023-05-10T05:12:24;100117.03;;;12.05;100.00
11343;BME280;5726;42.160;24.746;2023-05-10T05:14:49;100103.47;;;12.15;100.00
11343;BME280;5726;42.160;24.746;2023-05-10T05:17:15;100104.72;;;12.28;100.00
11343;BME280;5726;42.160;24.746;2023-05-10T05:19:40;100104.03;;;12.12;100.00
11343;BME280;5726;42.160;24.746;2023-05-10T05:22:06;100101.81;;;12.19;100.00
11343;BME280;5726;42.160;24.746;2023-05-10T05:24:35;100095.81;;;12.04;100.00
11343;BME280;5726;42.160;24.746;2023-05-10T05:27:03;100096.16;;;12.21;100.00
11343;BME280;5726;42.160;24.746;2023-05-10T05:29:28;100107.84;;;12.11;100.00
11343;BME280;5726;42.160;24.746;2023-05-10T05:31:54;100090.75;;;11.97;100.00
11343;BME280;5726;42.160;24.746;2023-05-10T05:34:19;100094.31;;;12.16;100.00
11343;BME280;5726;42.160;24.746;2023-05-10T05:36:45;100094.56;;;12.20;100.00
11343;BME280;5726;42.160;24.746;2023-05-10T05:39:11;100087.75;;;12.27;100.00
11343;BME280;5726;42.160;24.746;2023-05-10T05:41:36;100089.88;;;12.30;100.00
11343;BME280;5726;42.160;24.746;2023-05-10T05:44:02;100104.28;;;12.16;100.00
11343;BME280;5726;42.160;24.746;2023-05-10T05:46:27;100094.25;;;11.98;100.00
11343;BME280;5726;42.160;24.746;2023-05-10T05:48:52;100097.78;;;11.93;100.00
11343;BME280;5726;42.160;24.746;2023-05-10T05:51:18;100092.97;;;12.19;100.00
11343;BME280;5726;42.160;24.746;2023-05-10T05:53:43;100103.28;;;12.35;100.00
11343;BME280;5726;42.160;24.746;2023-05-10T05:56:09;100104.72;;;12.28;100.00
11343;BME280;5726;42.160;24.746;2023-05-10T05:58:34;100103.88;;;12.27;100.00
11343;BME280;5726;42.160;24.746;2023-05-10T06:01:00;100115.03;;;12.39;100.00
11343;BME280;5726;42.160;24.746;2023-05-10T06:03:26;100107.44;;;12.46;100.00
11343;BME280;5726;42.160;24.746;2023-05-10T06:05:51;100103.63;;;12.52;100.00
11343;BME280;5726;42.160;24.746;2023-05-10T06:08:17;100108.22;;;12.51;100.00
11343;BME280;5726;42.160;24.746;2023-05-10T06:10:42;100114.03;;;12.35;100.00
11343;BME280;5726;42.160;24.746;2023-05-10T06:13:08;100104.88;;;12.59;100.00
11343;BME280;5726;42.160;24.746;2023-05-10T06:15:33;100108.84;;;12.90;100.00
11343;BME280;5726;42.160;24.746;2023-05-10T06:17:59;100109.63;;;12.90;100.00
11343;BME280;5726;42.160;24.746;2023-05-10T06:20:25;100110.28;;;12.83;100.00
11343;BME280;5726;42.160;24.746;2023-05-10T06:22:50;100115.81;;;12.68;100.00
11343;BME280;5726;42.160;24.746;2023-05-10T06:25:16;100116.50;;;12.78;100.00
11343;BME280;5726;42.160;24.746;2023-05-10T06:27:43;100120.19;;;12.82;100.00
11343;BME280;5726;42.160;24.746;2023-05-10T06:30:09;100128.81;;;12.61;100.00
11343;BME280;5726;42.160;24.746;2023-05-10T06:32:34;100115.16;;;12.76;100.00
11343;BME280;5726;42.160;24.746;2023-05-10T06:35:00;100127.69;;;12.90;100.00
11343;BME280;5726;42.160;24.746;2023-05-10T06:37:25;100124.38;;;12.70;100.00
11343;BME280;5726;42.160;24.746;2023-05-10T06:39:51;100127.88;;;12.93;100.00
11343;BME280;5726;42.160;24.746;2023-05-10T06:42:16;100127.75;;;12.80;100.00
11343;BME280;5726;42.160;24.746;2023-05-10T06:44:42;100120.69;;;12.89;100.00
11343;BME280;5726;42.160;24.746;2023-05-10T06:47:08;100139.31;;;12.81;100.00
11343;BME280;5726;42.160;24.746;2023-05-10T06:49:34;100132.97;;;12.72;100.00
11343;BME280;5726;42.160;24.746;2023-05-10T06:51:59;100128.13;;;12.74;100.00
11343;BME280;5726;42.160;24.746;2023-05-10T06:54:25;100125.44;;;12.74;100.00
11343;BME280;5726;42.160;24.746;2023-05-10T06:56:50;100128.56;;;12.81;100.00
11343;BME280;5726;42.160;24.746;2023-05-10T06:59:15;100127.44;;;12.87;100.00
11343;BME280;5726;42.160;24.746;2023-05-10T07:01:42;100123.88;;;12.68;100.00
11343;BME280;5726;42.160;24.746;2023-05-10T07:04:08;100120.47;;;12.86;100.00
11343;BME280;5726;42.160;24.746;2023-05-10T07:06:33;100124.94;;;13.13;100.00
11343;BME280;5726;42.160;24.746;2023-05-10T07:08:59;100125.31;;;13.25;100.00
11343;BME280;5726;42.160;24.746;2023-05-10T07:11:25;100131.75;;;13.06;100.00
11343;BME280;5726;42.160;24.746;2023-05-10T07:13:50;100118.94;;;12.98;100.00
11343;BME280;5726;42.160;24.746;2023-05-10T07:16:16;100115.84;;;13.09;100.00
11343;BME280;5726;42.160;24.746;2023-05-10T07:18:41;100123.94;;;13.09;100.00
11343;BME280;5726;42.160;24.746;2023-05-10T07:21:07;100124.44;;;12.88;100.00
11343;BME280;5726;42.160;24.746;2023-05-10T07:23:32;100123.09;;;12.90;100.00
11343;BME280;5726;42.160;24.746;2023-05-10T07:25:58;100118.09;;;13.21;100.00
11343;BME280;5726;42.160;24.746;2023-05-10T07:28:23;100116.44;;;13.25;100.00
11343;BME280;5726;42.160;24.746;2023-05-10T07:30:51;100122.91;;;13.42;100.00
11343;BME280;5726;42.160;24.746;2023-05-10T07:33:17;100136.63;;;13.77;100.00
11343;BME280;5726;42.160;24.746;2023-05-10T07:35:43;100144.88;;;13.67;100.00
11343;BME280;5726;42.160;24.746;2023-05-10T07:38:08;100134.22;;;13.76;100.00
11343;BME280;5726;42.160;24.746;2023-05-10T07:40:36;100118.94;;;13.71;100.00
11343;BME280;5726;42.160;24.746;2023-05-10T07:43:01;100125.41;;;13.88;100.00
11343;BME280;5726;42.160;24.746;2023-05-10T07:45:27;100131.88;;;14.06;100.00
11343;BME280;5726;42.160;24.746;2023-05-10T07:47:53;100136.81;;;13.99;100.00
11343;BME280;5726;42.160;24.746;2023-05-10T07:50:18;100144.84;;;14.35;100.00
11343;BME280;5726;42.160;24.746;2023-05-10T07:52:44;100133.53;;;14.33;100.00
11343;BME280;5726;42.160;24.746;2023-05-10T07:55:09;100137.13;;;14.42;100.00
11343;BME280;5726;42.160;24.746;2023-05-10T07:57:35;100159.97;;;14.18;100.00
11343;BME280;5726;42.160;24.746;2023-05-10T08:00:01;100142.47;;;14.16;100.00
11343;BME280;5726;42.160;24.746;2023-05-10T08:02:26;100147.09;;;14.15;100.00
11343;BME280;5726;42.160;24.746;2023-05-10T08:04:51;100157.00;;;14.33;100.00
11343;BME280;5726;42.160;24.746;2023-05-10T08:07:17;100155.66;;;14.17;100.00
11343;BME280;5726;42.160;24.746;2023-05-10T08:09:43;100160.94;;;13.90;100.00
11343;BME280;5726;42.160;24.746;2023-05-10T08:12:08;100160.31;;;13.80;100.00
11343;BME280;5726;42.160;24.746;2023-05-10T08:14:34;100159.34;;;13.89;100.00
11343;BME280;5726;42.160;24.746;2023-05-10T08:17:02;100152.75;;;13.82;100.00
11343;BME280;5726;42.160;24.746;2023-05-10T08:19:28;100152.94;;;13.85;100.00
11343;BME280;5726;42.160;24.746;2023-05-10T08:21:53;100166.44;;;13.85;100.00
11343;BME280;5726;42.160;24.746;2023-05-10T08:24:21;100159.75;;;13.96;100.00
11343;BME280;5726;42.160;24.746;2023-05-10T08:26:46;100152.63;;;14.05;100.00
11343;BME280;5726;42.160;24.746;2023-05-10T08:29:13;100157.16;;;14.10;100.00
11343;BME280;5726;42.160;24.746;2023-05-10T08:31:38;100174.94;;;14.11;100.00
11343;BME280;5726;42.160;24.746;2023-05-10T08:34:03;100164.94;;;13.93;100.00
11343;BME280;5726;42.160;24.746;2023-05-10T08:36:29;100160.44;;;14.07;100.00
11343;BME280;5726;42.160;24.746;2023-05-10T08:38:56;100160.19;;;14.03;100.00
11343;BME280;5726;42.160;24.746;2023-05-10T08:41:22;100152.19;;;14.17;100.00
11343;BME280;5726;42.160;24.746;2023-05-10T08:43:50;100158.31;;;14.35;100.00
11343;BME280;5726;42.160;24.746;2023-05-10T08:46:18;100163.16;;;14.52;100.00
11343;BME280;5726;42.160;24.746;2023-05-10T08:48:45;100161.22;;;14.39;100.00
11343;BME280;5726;42.160;24.746;2023-05-10T08:51:16;100155.38;;;14.64;100.00
11343;BME280;5726;42.160;24.746;2023-05-10T08:53:43;100149.44;;;14.88;100.00
11343;BME280;5726;42.160;24.746;2023-05-10T08:56:09;100153.34;;;14.96;100.00
11343;BME280;5726;42.160;24.746;2023-05-10T08:58:35;100168.47;;;14.97;100.00
11343;BME280;5726;42.160;24.746;2023-05-10T09:01:02;100163.34;;;14.69;100.00
11343;BME280;5726;42.160;24.746;2023-05-10T09:03:28;100167.56;;;15.01;100.00
11343;BME280;5726;42.160;24.746;2023-05-10T09:05:54;100158.97;;;14.86;100.00
11343;BME280;5726;42.160;24.746;2023-05-10T09:08:21;100156.88;;;14.96;100.00
11343;BME280;5726;42.160;24.746;2023-05-10T09:10:50;100162.16;;;15.01;100.00
11343;BME280;5726;42.160;24.746;2023-05-10T09:13:17;100155.38;;;14.90;100.00
11343;BME280;5726;42.160;24.746;2023-05-10T09:15:44;100149.25;;;14.98;100.00
11343;BME280;5726;42.160;24.746;2023-05-10T09:18:09;100149.16;;;14.77;100.00
11343;BME280;5726;42.160;24.746;2023-05-10T09:20:35;100144.34;;;15.00;100.00
11343;BME280;5726;42.160;24.746;2023-05-10T09:23:00;100144.75;;;15.07;100.00
11343;BME280;5726;42.160;24.746;2023-05-10T09:25:26;100135.34;;;15.05;100.00
11343;BME280;5726;42.160;24.746;2023-05-10T09:27:52;100138.03;;;15.05;100.00
11343;BME280;5726;42.160;24.746;2023-05-10T09:30:23;100125.72;;;15.12;100.00
11343;BME280;5726;42.160;24.746;2023-05-10T09:32:49;100134.06;;;15.02;100.00
11343;BME280;5726;42.160;24.746;2023-05-10T09:35:17;100129.50;;;15.25;100.00
11343;BME280;5726;42.160;24.746;2023-05-10T09:37:46;100119.72;;;15.29;100.00
11343;BME280;5726;42.160;24.746;2023-05-10T09:40:23;100138.91;;;15.14;80.85
11343;BME280;5726;42.160;24.746;2023-05-10T09:43:06;100128.13;;;15.14;80.78
11343;BME280;5726;42.160;24.746;2023-05-10T09:45:33;100131.13;;;15.12;81.38
11343;BME280;5726;42.160;24.746;2023-05-10T09:48:00;100127.63;;;15.25;81.71
11343;BME280;5726;42.160;24.746;2023-05-10T09:50:27;100119.28;;;15.35;80.25
11343;BME280;5726;42.160;24.746;2023-05-10T09:52:55;100123.31;;;15.24;80.45
11343;BME280;5726;42.160;24.746;2023-05-10T09:55:24;100116.84;;;15.47;78.65
11343;BME280;5726;42.160;24.746;2023-05-10T09:57:59;100117.41;;;15.57;79.35
11343;BME280;5726;42.160;24.746;2023-05-10T10:00:26;100121.53;;;15.77;79.32
11343;BME280;5726;42.160;24.746;2023-05-10T10:02:59;100111.22;;;15.78;79.89
11343;BME280;5726;42.160;24.746;2023-05-10T10:05:35;100104.22;;;15.99;79.94
11343;BME280;5726;42.160;24.746;2023-05-10T10:08:02;100108.00;;;15.98;79.29
11343;BME280;5726;42.160;24.746;2023-05-10T10:10:28;100116.69;;;15.87;78.94
11343;BME280;5726;42.160;24.746;2023-05-10T10:12:55;100092.97;;;15.84;81.00
11343;BME280;5726;42.160;24.746;2023-05-10T10:15:21;100102.44;;;15.95;80.21
11343;BME280;5726;42.160;24.746;2023-05-10T10:17:48;100092.88;;;15.97;81.29
11343;BME280;5726;42.160;24.746;2023-05-10T10:20:15;100110.03;;;15.93;80.45
11343;BME280;5726;42.160;24.746;2023-05-10T10:22:41;100101.88;;;15.84;80.20
11343;BME280;5726;42.160;24.746;2023-05-10T10:25:07;100107.91;;;15.81;81.08
11343;BME280;5726;42.160;24.746;2023-05-10T10:27:42;100105.22;;;15.81;81.77
11343;BME280;5726;42.160;24.746;2023-05-10T10:35:19;100098.22;;;16.32;79.54
11343;BME280;5726;42.160;24.746;2023-05-10T10:37:47;100089.06;;;16.20;78.71
11343;BME280;5726;42.160;24.746;2023-05-10T10:40:29;100112.66;;;16.06;77.93
11343;BME280;5726;42.160;24.746;2023-05-10T10:42:56;100094.88;;;15.83;79.96
11343;BME280;5726;42.160;24.746;2023-05-10T10:45:22;100088.63;;;16.05;78.93
11343;BME280;5726;42.160;24.746;2023-05-10T10:47:48;100096.81;;;16.35;77.47
11343;BME280;5726;42.160;24.746;2023-05-10T10:50:15;100086.59;;;16.32;75.52
11343;BME280;5726;42.160;24.746;2023-05-10T10:52:46;100089.06;;;16.50;74.35
11343;BME280;5726;42.160;24.746;2023-05-10T10:55:20;100097.97;;;16.51;75.16
11343;BME280;5726;42.160;24.746;2023-05-10T10:57:53;100092.06;;;16.49;74.75
11343;BME280;5726;42.160;24.746;2023-05-10T11:00:33;100080.72;;;16.38;73.66
11343;BME280;5726;42.160;24.746;2023-05-10T11:03:11;100082.13;;;16.36;71.42
11343;BME280;5726;42.160;24.746;2023-05-10T11:05:46;100070.06;;;16.42;71.55
11343;BME280;5726;42.160;24.746;2023-05-10T11:08:15;100068.19;;;16.51;72.91
11343;BME280;5726;42.160;24.746;2023-05-10T11:10:50;100080.69;;;16.30;74.75
11343;BME280;5726;42.160;24.746;2023-05-10T11:13:47;100073.91;;;16.49;72.52
11343;BME280;5726;42.160;24.746;2023-05-10T11:18:40;100076.28;;;16.42;73.09
11343;BME280;5726;42.160;24.746;2023-05-10T11:21:08;100060.78;;;16.26;72.50
11343;BME280;5726;42.160;24.746;2023-05-10T11:23:50;100065.63;;;16.46;73.54
11343;BME280;5726;42.160;24.746;2023-05-10T11:26:16;100066.44;;;16.16;76.70
11343;BME280;5726;42.160;24.746;2023-05-10T11:28:48;100045.59;;;16.47;75.62
11343;BME280;5726;42.160;24.746;2023-05-10T11:31:15;100044.25;;;16.36;74.73
11343;BME280;5726;42.160;24.746;2023-05-10T11:33:45;100070.13;;;16.20;72.94
11343;BME280;5726;42.160;24.746;2023-05-10T11:36:13;100046.00;;;16.32;73.25
11343;BME280;5726;42.160;24.746;2023-05-10T11:38:39;100047.63;;;16.41;73.67
11343;BME280;5726;42.160;24.746;2023-05-10T11:41:05;100058.69;;;16.62;70.58
11343;BME280;5726;42.160;24.746;2023-05-10T11:43:30;100042.09;;;16.55;69.57
11343;BME280;5726;42.160;24.746;2023-05-10T11:45:56;100049.44;;;16.54;69.61
11343;BME280;5726;42.160;24.746;2023-05-10T11:48:21;100055.78;;;16.50;70.08
11343;BME280;5726;42.160;24.746;2023-05-10T11:50:49;100054.53;;;16.56;69.79
11343;BME280;5726;42.160;24.746;2023-05-10T11:53:15;100063.75;;;16.55;70.16
11343;BME280;5726;42.160;24.746;2023-05-10T11:55:40;100040.22;;;16.64;68.84
11343;BME280;5726;42.160;24.746;2023-05-10T11:58:06;100050.56;;;16.62;68.47
11343;BME280;5726;42.160;24.746;2023-05-10T12:00:31;100048.53;;;16.75;68.38
11343;BME280;5726;42.160;24.746;2023-05-10T12:03:00;100047.50;;;16.55;69.50
11343;BME280;5726;42.160;24.746;2023-05-10T12:05:26;100032.25;;;16.59;71.78
11343;BME280;5726;42.160;24.746;2023-05-10T12:07:51;100042.00;;;16.76;72.31
11343;BME280;5726;42.160;24.746;2023-05-10T12:10:25;100039.59;;;16.83;70.48
11343;BME280;5726;42.160;24.746;2023-05-10T12:12:52;100049.50;;;16.79;70.07
11343;BME280;5726;42.160;24.746;2023-05-10T12:15:20;100034.81;;;16.72;69.96
11343;BME280;5726;42.160;24.746;2023-05-10T12:17:46;100031.41;;;16.58;70.47
11343;BME280;5726;42.160;24.746;2023-05-10T12:22:43;100029.88;;;16.74;69.57
11343;BME280;5726;42.160;24.746;2023-05-10T12:25:09;100021.63;;;16.96;70.04
11343;BME280;5726;42.160;24.746;2023-05-10T12:27:35;100015.88;;;16.72;72.20
11343;BME280;5726;42.160;24.746;2023-05-10T12:30:01;100020.00;;;16.70;72.65
11343;BME280;5726;42.160;24.746;2023-05-10T12:32:40;100015.81;;;16.55;71.78
11343;BME280;5726;42.160;24.746;2023-05-10T12:35:06;100006.59;;;16.73;73.09
11343;BME280;5726;42.160;24.746;2023-05-10T12:37:31;100019.34;;;16.64;73.86
11343;BME280;5726;42.160;24.746;2023-05-10T12:40:00;100015.31;;;16.45;73.56
11343;BME280;5726;42.160;24.746;2023-05-10T12:42:27;100011.50;;;16.46;72.43
11343;BME280;5726;42.160;24.746;2023-05-10T12:44:56;100006.09;;;16.63;71.67
11343;BME280;5726;42.160;24.746;2023-05-10T12:47:21;99996.88;;;16.64;71.01
11343;BME280;5726;42.160;24.746;2023-05-10T12:49:47;100001.63;;;16.50;70.30
11343;BME280;5726;42.160;24.746;2023-05-10T12:52:12;99992.25;;;16.56;70.09
11343;BME280;5726;42.160;24.746;2023-05-10T12:54:38;99982.06;;;16.53;70.77
11343;BME280;5726;42.160;24.746;2023-05-10T12:57:03;99974.28;;;16.76;70.47
11343;BME280;5726;42.160;24.746;2023-05-10T12:59:28;99979.88;;;17.05;70.68
11343;BME280;5726;42.160;24.746;2023-05-10T13:01:54;99957.41;;;17.30;70.44
11343;BME280;5726;42.160;24.746;2023-05-10T13:04:20;99977.00;;;17.19;69.90
11343;BME280;5726;42.160;24.746;2023-05-10T13:06:45;99969.84;;;16.97;70.76
11343;BME280;5726;42.160;24.746;2023-05-10T13:09:11;99961.22;;;16.95;71.16
11343;BME280;5726;42.160;24.746;2023-05-10T13:11:36;99955.50;;;17.22;70.14